Time;durP1;ratioP1;P1;durP2;ratioP2;P2;SDS_P1;SDS_P2;PMS_P1;PMS_P2;Temp;Humidity;BMP_temperature;BMP_pressure;BME280_temperature;BME280_humidity;BME280_pressure;Samples;Min_cycle;Max_cycle;Signal;HPM_P1;HPM_P2
2023/10/23 00:00:35;;;;;;;3.60;2.10;;;;;;;;;;5083468;28;20611;-68
2023/10/23 00:03:01;;;;;;;5.57;2.65;;;;;;;;;;5085134;28;20216;-68
2023/10/23 00:05:27;;;;;;;3.10;2.45;;;;;;;;;;5083841;28;20225;-68
2023/10/23 00:07:54;;;;;;;3.47;2.38;;;;;;;;;;5084269;28;20251;-68
2023/10/23 00:10:20;;;;;;;4.95;2.65;;;;;;;;;;5084248;28;20196;-68
2023/10/23 00:12:47;;;;;;;3.03;2.45;;;;;;;;;;5084206;28;20315;-68
2023/10/23 00:15:15;;;;;;;2.85;2.50;;;;;;;;;;5083676;28;20302;-68
2023/10/23 00:17:41;;;;;;;3.08;2.50;;;;;;;;;;5084055;28;20227;-68
2023/10/23 00:20:08;;;;;;;3.67;2.65;;;;;;;;;;5084004;28;20196;-68
2023/10/23 00:22:34;;;;;;;3.55;2.72;;;;;;;;;;5082894;28;20282;-69
2023/10/23 00:25:00;;;;;;;7.65;2.85;;;;;;;;;;5083980;28;20223;-69
2023/10/23 00:27:27;;;;;;;2.97;2.70;;;;;;;;;;5084024;28;20555;-69
2023/10/23 00:29:53;;;;;;;5.82;2.90;;;;;;;;;;5080972;28;20208;-69
2023/10/23 00:32:21;;;;;;;4.70;2.72;;;;;;;;;;5080176;28;20576;-69
2023/10/23 00:34:47;;;;;;;3.72;2.88;;;;;;;;;;5088200;28;20242;-69
2023/10/23 00:37:13;;;;;;;2.95;2.50;;;;;;;;;;5085845;28;20200;-69
2023/10/23 00:39:40;;;;;;;2.55;2.33;;;;;;;;;;5075239;28;20578;-69
2023/10/23 00:42:06;;;;;;;3.03;2.63;;;;;;;;;;5083734;28;20191;-69
2023/10/23 00:44:33;;;;;;;4.07;2.22;;;;;;;;;;5083465;28;20251;-69
2023/10/23 00:46:59;;;;;;;2.63;2.33;;;;;;;;;;5080601;28;20299;-69
2023/10/23 00:49:27;;;;;;;5.40;2.50;;;;;;;;;;5087163;28;20211;-69
2023/10/23 00:51:53;;;;;;;4.75;2.67;;;;;;;;;;5080789;28;20200;-68
2023/10/23 00:54:20;;;;;;;7.03;2.88;;;;;;;;;;5085647;28;20216;-69
2023/10/23 00:56:46;;;;;;;2.92;2.70;;;;;;;;;;5081642;28;20206;-69
2023/10/23 00:59:13;;;;;;;7.30;3.17;;;;;;;;;;5085476;28;20195;-68
2023/10/23 01:01:39;;;;;;;2.53;2.38;;;;;;;;;;5082650;28;20200;-68
2023/10/23 01:04:06;;;;;;;5.30;2.53;;;;;;;;;;5083572;28;20220;-68
2023/10/23 01:06:34;;;;;;;4.22;2.90;;;;;;;;;;5083352;28;20210;-69
2023/10/23 01:09:00;;;;;;;3.25;2.95;;;;;;;;;;5083168;28;20238;-69
2023/10/23 01:11:26;;;;;;;3.88;2.70;;;;;;;;;;5083379;28;20196;-69
2023/10/23 01:13:53;;;;;;;4.50;3.15;;;;;;;;;;5080850;28;20195;-70
2023/10/23 01:16:19;;;;;;;5.40;2.70;;;;;;;;;;5085545;28;20199;-69
2023/10/23 01:18:45;;;;;;;4.13;2.63;;;;;;;;;;5081805;28;20699;-69
2023/10/23 01:21:12;;;;;;;4.10;2.63;;;;;;;;;;5079608;28;20200;-69
2023/10/23 01:23:41;;;;;;;4.32;2.75;;;;;;;;;;5087998;28;20215;-69
2023/10/23 01:26:09;;;;;;;3.13;2.47;;;;;;;;;;5083936;28;20199;-69
2023/10/23 01:28:35;;;;;;;4.30;2.72;;;;;;;;;;5075249;28;20204;-69
2023/10/23 01:31:02;;;;;;;3.90;2.50;;;;;;;;;;5082776;28;20659;-69
2023/10/23 01:33:29;;;;;;;2.50;2.20;;;;;;;;;;5085082;28;20199;-69
2023/10/23 01:35:55;;;;;;;2.28;2.08;;;;;;;;;;5091628;28;20246;-69
2023/10/23 01:38:21;;;;;;;2.35;2.22;;;;;;;;;;5089972;28;20199;-69
2023/10/23 01:40:47;;;;;;;3.60;2.08;;;;;;;;;;5085908;28;20218;-69
2023/10/23 01:43:15;;;;;;;4.57;2.00;;;;;;;;;;5083761;28;20205;-69
2023/10/23 01:45:41;;;;;;;2.47;2.28;;;;;;;;;;5083338;28;20626;-69
2023/10/23 01:48:08;;;;;;;4.70;2.47;;;;;;;;;;5086713;28;20195;-70
2023/10/23 01:50:34;;;;;;;2.10;1.88;;;;;;;;;;5087928;28;20196;-69
2023/10/23 01:53:00;;;;;;;8.23;2.25;;;;;;;;;;5091876;28;20205;-69
2023/10/23 01:55:26;;;;;;;2.90;2.42;;;;;;;;;;5089389;28;20216;-69
2023/10/23 01:57:53;;;;;;;3.40;2.42;;;;;;;;;;5084966;28;20222;-69
2023/10/23 02:00:20;;;;;;;2.70;2.25;;;;;;;;;;5088678;28;20202;-69
2023/10/23 02:02:47;;;;;;;5.47;2.80;;;;;;;;;;5085549;28;20306;-69
2023/10/23 02:05:13;;;;;;;3.53;2.00;;;;;;;;;;5087228;28;20588;-69
2023/10/23 02:07:38;;;;;;;3.10;2.45;;;;;;;;;;5086648;28;20200;-69
2023/10/23 02:10:05;;;;;;;2.67;2.20;;;;;;;;;;5086524;28;20219;-69
2023/10/23 02:12:33;;;;;;;1.92;1.83;;;;;;;;;;5086552;28;20208;-69
2023/10/23 02:14:59;;;;;;;3.85;2.35;;;;;;;;;;5083545;28;20223;-69
2023/10/23 02:17:26;;;;;;;4.82;1.88;;;;;;;;;;5088843;28;20196;-69
2023/10/23 02:19:53;;;;;;;2.50;2.30;;;;;;;;;;5084965;28;20196;-69
2023/10/23 02:22:19;;;;;;;2.55;2.03;;;;;;;;;;5087968;28;20661;-69
2023/10/23 02:24:45;;;;;;;3.15;2.05;;;;;;;;;;5085289;28;20757;-69
2023/10/23 02:27:12;;;;;;;7.60;2.40;;;;;;;;;;5086763;28;20214;-69
2023/10/23 02:29:40;;;;;;;2.55;1.65;;;;;;;;;;5086224;28;20226;-69
2023/10/23 02:32:06;;;;;;;3.75;2.00;;;;;;;;;;5082621;28;20196;-68
2023/10/23 02:34:34;;;;;;;3.47;2.38;;;;;;;;;;5089200;28;20243;-68
2023/10/23 02:37:00;;;;;;;4.95;2.45;;;;;;;;;;5083777;28;20234;-69
2023/10/23 02:39:26;;;;;;;3.15;2.38;;;;;;;;;;5088305;28;20192;-68
2023/10/23 02:41:53;;;;;;;4.55;2.53;;;;;;;;;;5084716;28;20222;-69
2023/10/23 02:44:19;;;;;;;2.78;1.90;;;;;;;;;;5081400;28;20680;-68
2023/10/23 02:46:45;;;;;;;2.45;2.25;;;;;;;;;;5090841;28;20226;-69
2023/10/23 02:49:12;;;;;;;4.22;2.58;;;;;;;;;;5086155;28;20200;-69
2023/10/23 02:51:39;;;;;;;3.47;2.25;;;;;;;;;;5085963;28;20219;-69
2023/10/23 02:54:06;;;;;;;6.55;2.50;;;;;;;;;;5082556;28;20220;-69
2023/10/23 02:56:33;;;;;;;4.13;2.45;;;;;;;;;;5082159;28;20201;-69
2023/10/23 02:58:59;;;;;;;3.45;3.00;;;;;;;;;;5090408;28;20286;-68
2023/10/23 03:01:25;;;;;;;4.93;2.78;;;;;;;;;;5087553;28;20200;-68
2023/10/23 03:03:52;;;;;;;2.60;2.40;;;;;;;;;;5084258;28;20584;-68
2023/10/23 03:06:18;;;;;;;2.72;2.60;;;;;;;;;;5086478;28;20199;-68
2023/10/23 03:08:46;;;;;;;2.70;2.50;;;;;;;;;;5085617;28;20215;-68
2023/10/23 03:11:12;;;;;;;2.30;2.10;;;;;;;;;;5085365;28;20192;-69
2023/10/23 03:13:38;;;;;;;4.93;2.65;;;;;;;;;;5085145;28;20242;-69
2023/10/23 03:16:05;;;;;;;3.67;2.58;;;;;;;;;;5082473;28;20204;-69
2023/10/23 03:18:31;;;;;;;4.35;2.78;;;;;;;;;;5088085;28;20218;-69
2023/10/23 03:20:59;;;;;;;4.18;2.83;;;;;;;;;;5083759;28;20294;-69
2023/10/23 03:23:25;;;;;;;5.78;2.80;;;;;;;;;;5081862;28;20196;-69
2023/10/23 03:25:52;;;;;;;2.95;2.72;;;;;;;;;;5089646;28;20295;-69
2023/10/23 03:28:19;;;;;;;7.50;2.90;;;;;;;;;;5085778;28;20200;-69
2023/10/23 03:30:45;;;;;;;4.10;2.90;;;;;;;;;;5085117;28;20204;-69
2023/10/23 03:33:11;;;;;;;3.90;2.95;;;;;;;;;;5085043;28;20192;-69
2023/10/23 03:35:41;;;;;;;5.47;2.90;;;;;;;;;;5084720;28;20699;-69
2023/10/23 03:38:07;;;;;;;5.72;3.00;;;;;;;;;;5082560;28;20208;-69
2023/10/23 03:40:34;;;;;;;4.70;2.72;;;;;;;;;;5087676;28;20208;-69
2023/10/23 03:43:01;;;;;;;3.90;2.55;;;;;;;;;;5083147;28;20211;-69
2023/10/23 03:45:28;;;;;;;3.95;2.80;;;;;;;;;;5085951;28;20707;-69
2023/10/23 03:47:54;;;;;;;6.63;3.15;;;;;;;;;;5084154;28;20579;-69
2023/10/23 03:50:20;;;;;;;3.08;2.78;;;;;;;;;;5085520;28;20200;-69
2023/10/23 03:52:46;;;;;;;6.38;2.97;;;;;;;;;;5084586;28;20324;-69
2023/10/23 03:55:13;;;;;;;4.38;2.97;;;;;;;;;;5083990;28;20214;-69
2023/10/23 03:57:39;;;;;;;3.13;2.85;;;;;;;;;;5083454;28;20670;-69
2023/10/23 04:00:10;;;;;;;4.28;2.63;;;;;;;;;;5076138;28;20223;-69
2023/10/23 04:02:36;;;;;;;4.60;2.88;;;;;;;;;;5084568;28;20211;-69
2023/10/23 04:05:03;;;;;;;4.63;2.95;;;;;;;;;;5082540;28;20223;-69
2023/10/23 04:07:29;;;;;;;6.18;3.47;;;;;;;;;;5086673;28;20195;-68
2023/10/23 04:09:55;;;;;;;5.78;3.30;;;;;;;;;;5085673;28;20200;-69
2023/10/23 04:12:21;;;;;;;3.67;3.28;;;;;;;;;;5087314;28;20195;-69
2023/10/23 04:14:48;;;;;;;4.65;4.13;;;;;;;;;;5085193;28;20220;-69
2023/10/23 04:17:15;;;;;;;3.92;3.50;;;;;;;;;;5084100;28;20191;-69
2023/10/23 04:19:41;;;;;;;4.97;3.70;;;;;;;;;;5084153;28;20203;-69
2023/10/23 04:22:08;;;;;;;6.57;3.33;;;;;;;;;;5081718;28;20206;-69
2023/10/23 04:24:34;;;;;;;6.60;3.70;;;;;;;;;;5085536;28;20702;-69
2023/10/23 04:27:00;;;;;;;5.70;3.67;;;;;;;;;;5083332;28;20200;-69
2023/10/23 04:29:27;;;;;;;4.63;3.70;;;;;;;;;;5084957;28;20195;-69
2023/10/23 04:31:53;;;;;;;5.82;4.35;;;;;;;;;;5083872;28;20206;-69
2023/10/23 04:34:20;;;;;;;7.03;4.25;;;;;;;;;;5083159;28;20223;-69
2023/10/23 04:36:47;;;;;;;4.85;4.15;;;;;;;;;;5083494;28;20679;-69
2023/10/23 04:39:13;;;;;;;4.55;4.15;;;;;;;;;;5080916;28;20203;-69
2023/10/23 04:41:39;;;;;;;5.47;3.85;;;;;;;;;;5086615;28;20207;-69
2023/10/23 04:44:06;;;;;;;4.18;3.78;;;;;;;;;;5081818;28;20246;-69
2023/10/23 04:46:32;;;;;;;3.80;3.40;;;;;;;;;;5085339;28;20200;-69
2023/10/23 04:48:58;;;;;;;5.47;3.55;;;;;;;;;;5083302;28;20203;-69
2023/10/23 04:51:26;;;;;;;4.43;3.40;;;;;;;;;;5083971;28;20202;-69
2023/10/23 04:53:52;;;;;;;4.13;3.83;;;;;;;;;;5083059;28;20671;-69
2023/10/23 04:56:18;;;;;;;3.97;3.58;;;;;;;;;;5083238;28;20199;-69
2023/10/23 04:58:44;;;;;;;5.28;3.63;;;;;;;;;;5083679;28;20207;-69
2023/10/23 05:01:20;;;;;;;5.95;4.18;;;;;;;;;;5081326;28;20211;-69
2023/10/23 05:03:46;;;;;;;6.95;3.90;;;;;;;;;;5079413;28;20196;-69
2023/10/23 05:06:13;;;;;;;4.60;3.97;;;;;;;;;;5087982;28;20223;-69
2023/10/23 05:08:40;;;;;;;4.15;3.80;;;;;;;;;;5079815;28;20205;-69
2023/10/23 05:11:07;;;;;;;4.28;3.08;;;;;;;;;;5088192;28;20207;-68
2023/10/23 05:13:33;;;;;;;8.68;3.38;;;;;;;;;;5079704;28;20223;-68
2023/10/23 05:16:04;;;;;;;5.05;2.92;;;;;;;;;;5087592;28;20251;-68
2023/10/23 05:18:30;;;;;;;3.00;2.78;;;;;;;;;;5084212;28;20202;-68
2023/10/23 05:20:56;;;;;;;6.28;3.42;;;;;;;;;;5083083;28;20203;-69
2023/10/23 05:23:23;;;;;;;6.90;3.30;;;;;;;;;;5082097;28;20578;-69
2023/10/23 05:25:50;;;;;;;7.80;3.65;;;;;;;;;;5082086;28;20291;-69
2023/10/23 05:28:16;;;;;;;4.35;3.20;;;;;;;;;;5079697;28;20281;-69
2023/10/23 05:30:43;;;;;;;5.10;3.10;;;;;;;;;;5084786;28;20230;-69
2023/10/23 05:33:09;;;;;;;5.20;3.05;;;;;;;;;;5080887;28;20207;-69
2023/10/23 05:35:35;;;;;;;3.28;2.90;;;;;;;;;;5082864;28;20230;-59
2023/10/23 05:38:02;;;;;;;5.03;3.42;;;;;;;;;;5081652;28;20207;-58
2023/10/23 05:40:28;;;;;;;5.35;3.63;;;;;;;;;;5082651;28;20195;-60
2023/10/23 05:42:56;;;;;;;5.13;3.20;;;;;;;;;;5082226;28;20196;-58
2023/10/23 05:45:22;;;;;;;4.32;3.20;;;;;;;;;;5078555;28;20248;-58
2023/10/23 05:47:48;;;;;;;5.10;2.95;;;;;;;;;;5085013;28;20204;-60
2023/10/23 05:50:15;;;;;;;5.03;3.22;;;;;;;;;;5080237;28;20204;-59
2023/10/23 05:52:41;;;;;;;6.70;3.65;;;;;;;;;;5083980;28;20660;-59
2023/10/23 05:55:08;;;;;;;7.22;3.13;;;;;;;;;;5080830;28;20224;-58
2023/10/23 05:57:35;;;;;;;6.43;3.22;;;;;;;;;;5079863;28;20730;-59
2023/10/23 06:00:03;;;;;;;4.70;2.70;;;;;;;;;;5083215;28;20204;-63
2023/10/23 06:02:30;;;;;;;4.65;3.38;;;;;;;;;;5068717;28;20325;-61
2023/10/23 06:04:57;;;;;;;7.72;3.00;;;;;;;;;;5076113;28;20739;-61
2023/10/23 06:07:23;;;;;;;7.03;3.28;;;;;;;;;;5063136;28;20216;-61
2023/10/23 06:09:49;;;;;;;7.47;3.45;;;;;;;;;;5060703;28;20208;-59
2023/10/23 06:12:15;;;;;;;5.25;3.40;;;;;;;;;;5069235;28;20508;-62
2023/10/23 06:14:42;;;;;;;4.32;3.03;;;;;;;;;;5061774;28;20802;-60
2023/10/23 06:17:09;;;;;;;3.70;3.38;;;;;;;;;;5062004;28;20220;-59
2023/10/23 06:19:36;;;;;;;8.05;3.20;;;;;;;;;;5063134;28;20676;-60
2023/10/23 06:22:03;;;;;;;3.63;3.20;;;;;;;;;;5067097;28;20236;-61
2023/10/23 06:24:30;;;;;;;5.05;3.45;;;;;;;;;;5066498;28;20475;-59
2023/10/23 06:26:57;;;;;;;6.07;3.78;;;;;;;;;;5071396;28;20232;-61
2023/10/23 06:29:23;;;;;;;11.60;4.32;;;;;;;;;;5075546;28;20554;-60
2023/10/23 06:31:49;;;;;;;5.10;3.67;;;;;;;;;;5066900;28;20236;-60
2023/10/23 06:34:17;;;;;;;4.57;3.47;;;;;;;;;;5065769;28;21002;-61
2023/10/23 06:36:43;;;;;;;4.50;3.85;;;;;;;;;;5065427;28;20200;-58
2023/10/23 06:39:12;;;;;;;4.88;3.20;;;;;;;;;;5065294;28;20212;-60
2023/10/23 06:41:38;;;;;;;3.90;3.47;;;;;;;;;;5065134;28;20216;-59
2023/10/23 06:44:05;;;;;;;8.10;3.60;;;;;;;;;;5065019;28;20227;-60
2023/10/23 06:46:31;;;;;;;4.72;3.45;;;;;;;;;;5068999;28;20228;-60
2023/10/23 06:48:57;;;;;;;7.15;3.55;;;;;;;;;;5065129;28;20632;-60
2023/10/23 06:51:26;;;;;;;5.18;3.67;;;;;;;;;;5065641;28;20300;-59
2023/10/23 06:53:52;;;;;;;6.88;4.00;;;;;;;;;;5070102;28;20216;-60
2023/10/23 06:56:18;;;;;;;10.35;4.35;;;;;;;;;;5066038;28;20209;-60
2023/10/23 06:58:45;;;;;;;4.90;3.90;;;;;;;;;;5065994;28;20798;-60
2023/10/23 07:01:12;;;;;;;11.52;4.00;;;;;;;;;;5066052;28;20235;-60
2023/10/23 07:03:38;;;;;;;7.78;4.13;;;;;;;;;;5066213;28;20205;-59
2023/10/23 07:06:06;;;;;;;5.45;4.13;;;;;;;;;;5065533;28;20242;-60
2023/10/23 07:08:33;;;;;;;7.40;3.83;;;;;;;;;;5066012;28;20771;-58
2023/10/23 07:11:00;;;;;;;11.68;4.35;;;;;;;;;;5065461;28;20223;-58
2023/10/23 07:13:27;;;;;;;12.20;4.10;;;;;;;;;;5065741;28;20216;-59
2023/10/23 07:15:53;;;;;;;6.13;4.55;;;;;;;;;;5065367;28;20251;-58
2023/10/23 07:18:21;;;;;;;7.80;4.28;;;;;;;;;;5066175;28;20221;-60
2023/10/23 07:20:58;;;;;;;5.78;3.97;;;;;;;;;;5075091;28;20303;-61
2023/10/23 07:23:24;;;;;;;16.48;4.22;;;;;;;;;;5075497;28;20212;-61
2023/10/23 07:26:00;;;;;;;5.38;3.60;;;;;;;;;;5074192;28;20729;-60
2023/10/23 07:28:26;;;;;;;13.00;4.13;;;;;;;;;;5076963;28;20680;-58
2023/10/23 07:30:52;;;;;;;7.40;3.95;;;;;;;;;;5080550;28;20212;-60
2023/10/23 07:33:19;;;;;;;8.43;3.90;;;;;;;;;;5075104;28;20208;-61
2023/10/23 07:35:45;;;;;;;11.38;4.03;;;;;;;;;;5074963;28;20216;-60
2023/10/23 07:38:11;;;;;;;8.77;4.45;;;;;;;;;;5074594;28;20711;-61
2023/10/23 07:40:42;;;;;;;7.20;3.83;;;;;;;;;;5075089;28;20215;-60
2023/10/23 07:43:10;;;;;;;16.98;4.50;;;;;;;;;;5068595;28;20219;-61
2023/10/23 07:45:38;;;;;;;13.07;4.57;;;;;;;;;;5075386;28;20217;-61
2023/10/23 07:48:04;;;;;;;4.35;3.63;;;;;;;;;;5075717;28;20216;-61
2023/10/23 07:50:32;;;;;;;7.72;4.15;;;;;;;;;;5077463;28;20285;-61
2023/10/23 07:52:59;;;;;;;10.57;4.18;;;;;;;;;;5085200;28;20207;-61
2023/10/23 07:55:25;;;;;;;6.55;3.88;;;;;;;;;;5069400;28;20212;-61
2023/10/23 07:57:51;;;;;;;8.45;3.88;;;;;;;;;;5072365;28;20240;-59
2023/10/23 08:00:19;;;;;;;6.50;4.32;;;;;;;;;;5074873;28;20676;-59
2023/10/23 08:02:46;;;;;;;7.32;4.57;;;;;;;;;;5073093;28;20270;-60
2023/10/23 08:05:12;;;;;;;8.55;3.95;;;;;;;;;;5073873;28;20231;-61
2023/10/23 08:07:38;;;;;;;6.13;3.83;;;;;;;;;;5074065;28;20216;-61
2023/10/23 08:10:05;;;;;;;9.60;3.83;;;;;;;;;;5072861;28;20215;-60
2023/10/23 08:12:31;;;;;;;5.75;3.10;;;;;;;;;;5065842;28;20212;-61
2023/10/23 08:14:58;;;;;;;5.63;3.60;;;;;;;;;;5071426;28;20226;-58
2023/10/23 08:17:25;;;;;;;5.00;3.67;;;;;;;;;;5078052;28;20699;-57
2023/10/23 08:19:52;;;;;;;3.65;3.20;;;;;;;;;;5072478;28;20676;-59
2023/10/23 08:22:18;;;;;;;3.70;2.92;;;;;;;;;;5073997;28;20235;-60
2023/10/23 08:24:44;;;;;;;7.82;3.05;;;;;;;;;;5069226;28;20228;-59
2023/10/23 08:27:10;;;;;;;6.85;3.08;;;;;;;;;;5068348;28;20224;-60
2023/10/23 08:29:38;;;;;;;4.30;2.80;;;;;;;;;;5073524;28;20549;-60
2023/10/23 08:32:04;;;;;;;6.47;3.30;;;;;;;;;;5074400;28;20208;-60
2023/10/23 08:34:32;;;;;;;9.45;3.53;;;;;;;;;;5072833;28;20224;-60
2023/10/23 08:36:58;;;;;;;5.57;3.35;;;;;;;;;;5073099;28;20612;-60
2023/10/23 08:39:25;;;;;;;3.70;3.35;;;;;;;;;;5064149;28;20214;-58
2023/10/23 08:41:52;;;;;;;5.63;3.42;;;;;;;;;;5075816;28;20207;-58
2023/10/23 08:44:19;;;;;;;6.07;3.72;;;;;;;;;;5067008;28;20219;-59
2023/10/23 08:46:46;;;;;;;4.38;3.47;;;;;;;;;;5072482;28;20231;-59
2023/10/23 08:49:12;;;;;;;7.55;3.58;;;;;;;;;;5071836;28;20208;-59
2023/10/23 08:51:41;;;;;;;5.35;3.65;;;;;;;;;;5067996;28;20225;-58
2023/10/23 08:54:08;;;;;;;6.43;3.92;;;;;;;;;;5071635;28;20306;-58
2023/10/23 08:56:36;;;;;;;8.95;3.95;;;;;;;;;;5070084;28;20208;-57
2023/10/23 08:59:03;;;;;;;8.15;3.72;;;;;;;;;;5070343;28;20212;-61
2023/10/23 09:01:29;;;;;;;8.65;3.70;;;;;;;;;;5085443;28;20210;-60
2023/10/23 09:03:56;;;;;;;7.32;4.00;;;;;;;;;;5072887;28;20769;-61
2023/10/23 09:06:22;;;;;;;8.48;3.78;;;;;;;;;;5066711;28;20224;-60
2023/10/23 09:08:50;;;;;;;6.88;3.80;;;;;;;;;;5069182;28;20314;-61
2023/10/23 09:11:16;;;;;;;9.60;4.80;;;;;;;;;;5085815;28;20200;-61
2023/10/23 09:13:42;;;;;;;8.60;4.68;;;;;;;;;;5068370;28;20215;-61
2023/10/23 09:16:10;;;;;;;5.70;4.32;;;;;;;;;;5067808;28;20223;-59
2023/10/23 09:18:44;;;;;;;9.45;4.43;;;;;;;;;;5068613;28;20234;-60
2023/10/23 09:21:11;;;;;;;6.53;4.07;;;;;;;;;;5076351;28;20289;-61
2023/10/23 09:23:49;;;;;;;10.65;3.75;;;;;;;;;;5068030;28;20645;-58
2023/10/23 09:26:17;;;;;;;7.47;4.22;;;;;;;;;;5067275;28;20227;-58
2023/10/23 09:28:43;;;;;;;5.30;4.00;;;;;;;;;;5067681;28;20204;-59
2023/10/23 09:31:09;;;;;;;10.88;4.18;;;;;;;;;;5068185;28;20613;-60
2023/10/23 09:33:35;;;;;;;7.50;3.78;;;;;;;;;;5070436;28;20208;-59
2023/10/23 09:36:02;;;;;;;4.25;3.42;;;;;;;;;;5082334;28;20303;-60
2023/10/23 09:38:29;;;;;;;3.92;3.60;;;;;;;;;;5067445;28;20204;-61
2023/10/23 09:40:56;;;;;;;7.45;4.10;;;;;;;;;;5067247;28;20555;-61
2023/10/23 09:43:25;;;;;;;6.35;4.05;;;;;;;;;;5067169;28;20212;-60
2023/10/23 09:45:52;;;;;;;11.38;4.80;;;;;;;;;;5076194;28;20224;-61
2023/10/23 09:48:20;;;;;;;7.40;4.88;;;;;;;;;;5067978;28;20231;-61
2023/10/23 09:50:49;;;;;;;8.20;4.90;;;;;;;;;;5067599;28;20211;-61
2023/10/23 09:53:16;;;;;;;7.32;4.82;;;;;;;;;;5067655;28;20208;-60
2023/10/23 09:55:44;;;;;;;8.68;4.93;;;;;;;;;;5078620;28;20598;-58
2023/10/23 09:58:14;;;;;;;10.82;5.50;;;;;;;;;;5071512;28;20232;-58
2023/10/23 10:00:42;;;;;;;10.07;4.63;;;;;;;;;;5071340;28;20209;-61
2023/10/23 10:03:12;;;;;;;13.00;5.55;;;;;;;;;;5071152;28;20534;-62
2023/10/23 10:05:43;;;;;;;7.85;4.30;;;;;;;;;;5081354;28;20599;-60
2023/10/23 10:08:14;;;;;;;7.55;4.07;;;;;;;;;;5091557;28;20222;-59
2023/10/23 10:10:40;;;;;;;5.38;3.45;;;;;;;;;;5071189;28;20215;-61
2023/10/23 10:13:07;;;;;;;6.28;3.30;;;;;;;;;;5070827;28;20212;-61
2023/10/23 10:15:33;;;;;;;5.30;3.70;;;;;;;;;;5071392;28;20228;-61
2023/10/23 10:18:02;;;;;;;8.43;4.03;;;;;;;;;;5078558;28;20203;-60
2023/10/23 10:20:28;;;;;;;7.13;3.85;;;;;;;;;;5071114;28;20867;-57
2023/10/23 10:22:58;;;;;;;9.75;4.47;;;;;;;;;;5071293;28;20208;-58
2023/10/23 10:25:25;;;;;;;7.22;3.83;;;;;;;;;;5071053;28;20239;-59
2023/10/23 10:27:55;;;;;;;10.65;4.18;;;;;;;;;;5070399;28;20635;-60
2023/10/23 10:30:37;;;;;;;6.30;4.30;;;;;;;;;;5071025;28;20204;-59
2023/10/23 10:33:08;;;;;;;14.32;4.00;;;;;;;;;;5073420;28;20211;-61
2023/10/23 10:35:35;;;;;;;4.82;3.63;;;;;;;;;;5082335;28;20806;-61
2023/10/23 10:38:03;;;;;;;6.88;3.50;;;;;;;;;;5091614;28;20629;-61
2023/10/23 10:40:49;;;;;;;3.88;3.58;;;;;;;;;;5074171;28;20218;-61
2023/10/23 10:43:19;;;;;;;10.68;4.45;;;;;;;;;;5071453;28;20204;-58
2023/10/23 10:45:45;;;;;;;9.55;3.70;;;;;;;;;;5069745;28;20263;-59
2023/10/23 10:48:15;;;;;;;7.43;3.83;;;;;;;;;;5070618;28;20227;-60
2023/10/23 10:50:42;;;;;;;6.95;3.80;;;;;;;;;;5070792;28;20287;-60
2023/10/23 10:53:09;;;;;;;7.75;4.10;;;;;;;;;;5077267;28;20281;-61
2023/10/23 10:55:36;;;;;;;8.43;3.90;;;;;;;;;;5081377;28;20977;-60
2023/10/23 10:58:03;;;;;;;7.53;4.45;;;;;;;;;;5070308;28;20207;-61
2023/10/23 11:00:29;;;;;;;9.20;4.20;;;;;;;;;;5070061;28;20204;-62
2023/10/23 11:02:56;;;;;;;7.00;4.63;;;;;;;;;;5069520;28;20490;-61
2023/10/23 11:05:24;;;;;;;6.22;4.05;;;;;;;;;;5078248;28;20231;-60
2023/10/23 11:07:51;;;;;;;8.65;4.15;;;;;;;;;;5069823;28;20224;-58
2023/10/23 11:10:18;;;;;;;7.70;4.10;;;;;;;;;;5070017;28;20212;-58
2023/10/23 11:12:44;;;;;;;9.82;4.95;;;;;;;;;;5077240;28;20617;-59
2023/10/23 11:15:10;;;;;;;15.13;5.10;;;;;;;;;;5089291;28;20231;-57
2023/10/23 11:17:36;;;;;;;11.13;4.90;;;;;;;;;;5089683;28;20230;-56
2023/10/23 11:20:06;;;;;;;12.00;5.13;;;;;;;;;;5090407;28;20211;-59
2023/10/23 11:22:33;;;;;;;13.25;5.60;;;;;;;;;;5087517;28;20223;-58
2023/10/23 11:25:00;;;;;;;14.88;6.85;;;;;;;;;;5069786;28;20575;-59
2023/10/23 11:27:26;;;;;;;15.63;7.03;;;;;;;;;;5069382;28;20220;-60
2023/10/23 11:29:52;;;;;;;19.52;7.43;;;;;;;;;;5072757;28;20212;-60
2023/10/23 11:32:19;;;;;;;16.83;6.80;;;;;;;;;;5074634;28;20215;-60
2023/10/23 11:34:47;;;;;;;12.93;7.13;;;;;;;;;;5069558;28;20224;-59
2023/10/23 11:37:13;;;;;;;16.65;7.55;;;;;;;;;;5068569;28;20258;-59
2023/10/23 11:39:42;;;;;;;17.88;6.50;;;;;;;;;;5067964;28;20208;-57
2023/10/23 11:42:08;;;;;;;15.38;6.25;;;;;;;;;;5068897;28;20444;-57
2023/10/23 11:44:35;;;;;;;15.40;7.05;;;;;;;;;;5066851;28;20910;-59
2023/10/23 11:47:04;;;;;;;11.32;6.32;;;;;;;;;;5075884;28;20211;-59
2023/10/23 11:49:30;;;;;;;12.90;5.65;;;;;;;;;;5074407;28;20204;-60
2023/10/23 11:51:57;;;;;;;7.70;4.93;;;;;;;;;;5078554;28;20731;-59
2023/10/23 11:54:24;;;;;;;13.55;5.80;;;;;;;;;;5071793;28;20220;-60
2023/10/23 11:56:51;;;;;;;15.15;6.03;;;;;;;;;;5075096;28;20208;-60
2023/10/23 11:59:18;;;;;;;13.60;5.63;;;;;;;;;;5074681;28;20204;-59
2023/10/23 12:01:44;;;;;;;10.07;5.55;;;;;;;;;;5074813;28;20215;-59
2023/10/23 12:04:11;;;;;;;7.70;5.07;;;;;;;;;;5071271;28;20805;-59
2023/10/23 12:06:37;;;;;;;15.68;6.45;;;;;;;;;;5076609;28;20223;-60
2023/10/23 12:09:03;;;;;;;9.88;5.63;;;;;;;;;;5074558;28;20204;-60
2023/10/23 12:11:30;;;;;;;11.23;5.93;;;;;;;;;;5065661;28;20205;-58
2023/10/23 12:13:59;;;;;;;15.18;6.00;;;;;;;;;;5065427;28;20212;-59
2023/10/23 12:16:25;;;;;;;14.05;6.32;;;;;;;;;;5072856;28;20237;-60
2023/10/23 12:18:52;;;;;;;10.20;5.47;;;;;;;;;;5070594;28;20227;-60
2023/10/23 12:21:18;;;;;;;10.40;6.40;;;;;;;;;;5072167;28;20200;-58
2023/10/23 12:23:45;;;;;;;13.65;6.95;;;;;;;;;;5069354;28;20212;-59
2023/10/23 12:26:11;;;;;;;13.20;7.05;;;;;;;;;;5073205;28;20211;-58
2023/10/23 12:28:37;;;;;;;17.15;7.95;;;;;;;;;;5065463;28;20224;-60
2023/10/23 12:31:05;;;;;;;19.73;7.65;;;;;;;;;;5075400;28;20208;-60
2023/10/23 12:33:32;;;;;;;15.07;8.35;;;;;;;;;;5065776;28;20242;-61
2023/10/23 12:36:00;;;;;;;19.27;8.32;;;;;;;;;;5076651;28;20228;-58
2023/10/23 12:38:27;;;;;;;16.77;7.82;;;;;;;;;;5068623;28;20243;-61
2023/10/23 12:40:53;;;;;;;25.92;8.98;;;;;;;;;;5073626;28;20648;-58
2023/10/23 12:43:19;;;;;;;19.17;7.65;;;;;;;;;;5067039;28;20211;-59
2023/10/23 12:45:46;;;;;;;24.63;8.82;;;;;;;;;;5073811;28;20220;-59
2023/10/23 12:48:14;;;;;;;23.88;8.27;;;;;;;;;;5073443;28;20282;-60
2023/10/23 12:50:40;;;;;;;26.27;8.93;;;;;;;;;;5065555;28;20225;-60
2023/10/23 12:53:06;;;;;;;21.83;8.60;;;;;;;;;;5071393;28;20211;-61
2023/10/23 12:55:33;;;;;;;24.65;8.32;;;;;;;;;;5074042;28;20231;-60
2023/10/23 12:57:59;;;;;;;23.00;9.48;;;;;;;;;;5073632;28;20207;-60
2023/10/23 13:00:25;;;;;;;24.42;8.82;;;;;;;;;;5071166;28;20581;-60
2023/10/23 13:02:51;;;;;;;19.35;7.88;;;;;;;;;;5068435;28;20216;-60
2023/10/23 13:05:19;;;;;;;17.73;7.18;;;;;;;;;;5071609;28;20224;-60
2023/10/23 13:07:45;;;;;;;24.95;8.00;;;;;;;;;;5071061;28;20318;-60
2023/10/23 13:10:12;;;;;;;17.83;8.88;;;;;;;;;;5065129;28;20208;-60
2023/10/23 13:12:38;;;;;;;27.40;10.10;;;;;;;;;;5068381;28;20710;-60
2023/10/23 13:15:05;;;;;;;18.73;8.63;;;;;;;;;;5065187;28;20224;-60
2023/10/23 13:17:31;;;;;;;25.63;8.52;;;;;;;;;;5073381;28;20520;-60
2023/10/23 13:19:57;;;;;;;21.42;8.80;;;;;;;;;;5073653;28;20573;-62
2023/10/23 13:22:25;;;;;;;20.63;9.45;;;;;;;;;;5072656;28;20230;-61
2023/10/23 13:24:51;;;;;;;28.30;9.32;;;;;;;;;;5086293;28;20232;-60
2023/10/23 13:27:17;;;;;;;18.25;8.10;;;;;;;;;;5087698;28;20223;-61
2023/10/23 13:29:44;;;;;;;23.05;7.93;;;;;;;;;;5092651;28;20295;-60
2023/10/23 13:32:11;;;;;;;16.00;7.85;;;;;;;;;;5094043;28;20211;-59
2023/10/23 13:34:38;;;;;;;23.30;8.35;;;;;;;;;;5093519;28;20230;-61
2023/10/23 13:37:04;;;;;;;22.05;8.30;;;;;;;;;;5074931;28;20208;-61
2023/10/23 13:39:32;;;;;;;18.83;9.35;;;;;;;;;;5074106;28;20652;-61
2023/10/23 13:41:59;;;;;;;22.30;8.25;;;;;;;;;;5076225;28;20232;-59
2023/10/23 13:44:25;;;;;;;23.50;8.35;;;;;;;;;;5075759;28;20231;-60
2023/10/23 13:46:51;;;;;;;21.38;7.85;;;;;;;;;;5083002;28;20211;-61
2023/10/23 13:49:17;;;;;;;13.68;7.90;;;;;;;;;;5074292;28;20607;-61
2023/10/23 13:51:44;;;;;;;17.65;8.45;;;;;;;;;;5087849;28;20211;-61
2023/10/23 13:54:10;;;;;;;18.30;8.82;;;;;;;;;;5088011;28;20314;-59
2023/10/23 13:56:38;;;;;;;25.67;8.73;;;;;;;;;;5087906;28;20211;-59
2023/10/23 13:59:04;;;;;;;20.25;8.18;;;;;;;;;;5074119;28;20215;-59
2023/10/23 14:01:30;;;;;;;22.77;7.60;;;;;;;;;;5079143;28;20211;-61
2023/10/23 14:03:57;;;;;;;26.10;8.88;;;;;;;;;;5080404;28;20211;-59
2023/10/23 14:06:24;;;;;;;15.50;8.82;;;;;;;;;;5077506;28;20204;-60
2023/10/23 14:08:53;;;;;;;24.08;8.32;;;;;;;;;;5078541;28;20243;-61
2023/10/23 14:11:20;;;;;;;16.52;7.90;;;;;;;;;;5070969;28;20698;-60
2023/10/23 14:13:47;;;;;;;21.83;8.50;;;;;;;;;;5070623;28;20219;-60
2023/10/23 14:16:14;;;;;;;17.23;8.10;;;;;;;;;;5073836;28;20315;-59
2023/10/23 14:18:41;;;;;;;22.17;8.30;;;;;;;;;;5076615;28;20228;-58
2023/10/23 14:21:07;;;;;;;18.10;8.75;;;;;;;;;;5079664;28;20672;-58
2023/10/23 14:23:33;;;;;;;19.30;8.13;;;;;;;;;;5080145;28;20231;-60
2023/10/23 14:25:59;;;;;;;19.00;8.10;;;;;;;;;;5079363;28;20235;-60
2023/10/23 14:28:25;;;;;;;15.43;8.20;;;;;;;;;;5071052;28;20223;-60
2023/10/23 14:30:53;;;;;;;18.63;7.90;;;;;;;;;;5077801;28;20208;-60
2023/10/23 14:33:19;;;;;;;16.05;7.47;;;;;;;;;;5075887;28;20215;-59
2023/10/23 14:35:46;;;;;;;14.88;7.18;;;;;;;;;;5075046;28;20608;-59